Time;durP1;ratioP1;P1;durP2;ratioP2;P2;SDS_P1;SDS_P2;PMS_P1;PMS_P2;Temp;Humidity;BMP_temperature;BMP_pressure;BME280_temperature;BME280_humidity;BME280_pressure;Samples;Min_cycle;Max_cycle;Signal;HPM_P1;HPM_P2
2022/03/09 00:06:40;;;;;;;10.40;5.12;;;3.20;88.30;;;;;;6723754;88;20281;-83
2022/03/09 00:16:41;;;;;;;8.85;4.62;;;2.70;89.80;;;;;;6731871;88;20240;-82
2022/03/09 00:26:42;;;;;;;9.75;4.30;;;2.90;90.10;;;;;;6760620;88;20341;-85
2022/03/09 00:36:42;;;;;;;9.40;4.40;;;3.40;86.00;;;;;;6767864;88;20173;-83
2022/03/09 02:17:16;;;;;;;7.93;3.80;;;1.80;95.30;;;;;;7621789;76;21124;31
2022/03/09 03:08:30;;;;;;;8.00;4.20;;;1.30;99.20;;;;;;6698007;88;20170;-82
2022/03/09 03:18:32;;;;;;;9.40;3.40;;;1.30;99.80;;;;;;6678155;89;20153;-83
2022/03/09 03:28:33;;;;;;;8.65;3.83;;;2.10;95.20;;;;;;6644524;89;20166;-84
2022/03/09 03:38:34;;;;;;;9.50;4.20;;;2.00;95.60;;;;;;6628033;88;20154;-84
2022/03/09 04:00:17;;;;;;;13.02;4.45;;;1.40;99.90;;;;;;6822249;76;20156;-86
2022/03/09 04:10:38;;;;;;;11.65;4.85;;;1.40;99.90;;;;;;4724551;78;20182;-83
2022/03/09 11:49:45;;;;;;;9.60;5.70;;;13.20;58.80;;;;;;6712382;78;20163;-86
2022/03/09 12:00:10;;;;;;;9.98;5.82;;;12.90;58.70;;;;;;6803820;78;20911;-84
2022/03/09 13:11:20;;;;;;;11.23;7.10;;;17.60;52.60;;;;;;5225497;77;20243;-86
2022/03/09 15:02:16;;;;;;;17.87;8.63;;;16.30;51.60;;;;;;5106221;77;20226;-86
2022/03/09 15:52:31;;;;;;;15.93;7.93;;;15.40;52.10;;;;;;7229000;77;20337;-82
2022/03/09 16:12:57;;;;;;;13.80;7.37;;;15.20;52.00;;;;;;4808225;77;20170;-86
2022/03/09 16:23:18;;;;;;;13.23;7.43;;;14.90;51.70;;;;;;6812299;77;21080;-85
2022/03/09 16:45:02;;;;;;;14.60;8.25;;;14.40;52.30;;;;;;6799091;76;20164;-85
2022/03/09 16:55:05;;;;;;;12.30;6.70;;;14.00;52.70;;;;;;6749455;88;20275;-84
2022/03/09 17:15:09;;;;;;;15.05;6.90;;;13.10;53.40;;;;;;6802708;87;20208;-82
2022/03/09 17:25:11;;;;;;;14.10;6.90;;;12.70;54.10;;;;;;6794738;77;20219;-76
2022/03/09 17:35:12;;;;;;;13.70;6.80;;;12.30;54.60;;;;;;6780766;87;20694;-76
2022/03/09 17:45:13;;;;;;;17.60;6.95;;;12.00;55.50;;;;;;6786831;87;20226;-78
2022/03/09 17:55:14;;;;;;;12.63;6.50;;;11.70;55.70;;;;;;6774173;87;20186;-76
2022/03/09 18:05:15;;;;;;;13.73;6.37;;;11.30;56.00;;;;;;6775190;87;20686;-73
2022/03/09 18:15:15;;;;;;;12.30;7.05;;;11.00;56.30;;;;;;6784136;87;20323;-74
2022/03/09 18:25:16;;;;;;;11.93;6.85;;;10.80;57.20;;;;;;6788297;87;20208;-75
2022/03/09 18:35:16;;;;;;;13.80;6.80;;;10.50;57.70;;;;;;6765583;87;20262;-76
2022/03/09 18:45:17;;;;;;;18.05;7.30;;;10.30;58.10;;;;;;6766321;87;20190;-75
2022/03/09 18:55:18;;;;;;;12.18;6.53;;;10.10;58.20;;;;;;6767956;87;20191;-74
2022/03/09 19:05:18;;;;;;;11.23;6.18;;;9.80;58.80;;;;;;6771276;87;20224;-73
2022/03/09 19:15:19;;;;;;;14.38;6.75;;;9.60;59.20;;;;;;6765685;87;20793;-74
2022/03/09 19:25:19;;;;;;;12.70;6.95;;;9.20;59.90;;;;;;6764698;87;20245;-74
2022/03/09 19:35:20;;;;;;;18.27;7.20;;;8.90;60.70;;;;;;6694505;88;20197;-74
2022/03/09 19:45:21;;;;;;;14.68;6.75;;;8.60;61.60;;;;;;6702172;88;20208;-74
2022/03/09 19:55:22;;;;;;;12.75;6.97;;;8.40;62.20;;;;;;6695212;88;20191;-73
2022/03/09 20:05:23;;;;;;;15.68;7.18;;;8.30;63.00;;;;;;6696524;87;20211;-74
2022/03/09 20:15:23;;;;;;;12.95;6.80;;;8.30;63.10;;;;;;6690319;87;20271;-73
2022/03/09 20:25:24;;;;;;;12.73;7.05;;;8.20;63.60;;;;;;6705011;87;20214;-73
2022/03/09 20:35:24;;;;;;;15.35;7.25;;;8.20;63.80;;;;;;6780751;87;20299;-73
2022/03/09 20:45:25;;;;;;;14.95;7.25;;;8.00;63.90;;;;;;6779640;87;20343;-74
2022/03/09 20:55:26;;;;;;;15.48;7.62;;;7.90;64.70;;;;;;6779916;87;20257;-73
2022/03/09 21:05:27;;;;;;;16.62;7.80;;;7.60;65.70;;;;;;6783963;87;20563;-73
2022/03/09 21:15:27;;;;;;;17.25;7.82;;;7.40;66.80;;;;;;6783407;87;21126;-73
2022/03/09 21:25:28;;;;;;;17.17;7.40;;;7.10;67.40;;;;;;6791453;87;20188;-73
2022/03/09 21:35:28;;;;;;;15.60;7.47;;;7.00;67.80;;;;;;6778718;87;20229;-74
2022/03/09 21:45:29;;;;;;;17.52;8.23;;;6.80;68.40;;;;;;6783900;87;20205;-75
2022/03/09 21:55:30;;;;;;;15.88;7.37;;;6.70;68.10;;;;;;6783088;87;20331;-76
2022/03/09 22:05:30;;;;;;;14.70;7.15;;;6.80;68.10;;;;;;6782812;87;20687;-73
2022/03/09 22:15:31;;;;;;;13.95;7.03;;;6.70;67.50;;;;;;6782716;87;20343;-73
2022/03/09 22:25:31;;;;;;;14.87;7.15;;;6.70;67.10;;;;;;6766807;87;20231;-72
2022/03/09 22:35:32;;;;;;;17.50;6.87;;;6.60;67.20;;;;;;6694033;87;20225;-73
2022/03/09 22:45:32;;;;;;;17.35;6.82;;;6.30;68.30;;;;;;6694115;87;20220;-73
2022/03/09 22:55:33;;;;;;;13.93;6.45;;;6.00;69.70;;;;;;6689902;88;20234;-73
2022/03/09 23:05:34;;;;;;;12.15;6.53;;;6.00;69.00;;;;;;6693216;87;20371;-73
2022/03/09 23:15:36;;;;;;;15.48;7.37;;;6.00;68.40;;;;;;6693917;87;20751;-73
2022/03/09 23:25:37;;;;;;;14.80;6.70;;;5.80;69.00;;;;;;6696291;87;20227;-74
2022/03/09 23:35:38;;;;;;;13.73;7.05;;;5.40;72.30;;;;;;6688162;87;20265;-74
2022/03/09 23:45:39;;;;;;;14.50;7.57;;;5.10;72.10;;;;;;6700289;88;20230;-74
2022/03/09 23:55:39;;;;;;;16.65;7.68;;;4.70;74.50;;;;;;6701181;88;20250;-74
